createdAt,value
2023-01-04T00:00:01.535Z,0.00
2023-01-04T00:01:01.556Z,0.00
2023-01-04T00:02:01.616Z,0.00
2023-01-04T00:03:01.611Z,0.00
2023-01-04T00:04:01.562Z,0.00
2023-01-04T00:05:01.486Z,0.00
2023-01-04T00:06:01.486Z,0.00
2023-01-04T00:07:01.433Z,0.00
2023-01-04T00:08:01.436Z,0.00
2023-01-04T00:09:01.492Z,0.00
2023-01-04T00:10:01.407Z,0.00
2023-01-04T00:11:01.401Z,0.00
2023-01-04T00:12:01.403Z,0.00
2023-01-04T00:13:01.393Z,0.00
2023-01-04T00:14:01.384Z,0.00
2023-01-04T00:15:01.362Z,0.00
2023-01-04T00:16:07.559Z,0.00
2023-01-04T00:17:02.370Z,0.00
2023-01-04T00:18:01.318Z,0.00
2023-01-04T00:19:01.317Z,0.00
2023-01-04T00:20:01.292Z,0.00
2023-01-04T00:21:01.449Z,0.00
2023-01-04T00:22:01.291Z,0.00
2023-01-04T00:23:01.280Z,0.00
2023-01-04T00:24:01.318Z,0.00
2023-01-04T00:25:01.224Z,0.00
2023-01-04T00:26:01.226Z,0.00
2023-01-04T00:27:01.228Z,0.00
2023-01-04T00:28:01.211Z,0.00
2023-01-04T00:29:01.229Z,0.00
2023-01-04T00:30:01.187Z,0.00
2023-01-04T00:31:01.253Z,0.00
2023-01-04T00:32:01.191Z,0.00
2023-01-04T00:33:01.176Z,0.00
2023-01-04T00:34:01.180Z,0.00
2023-01-04T00:35:01.138Z,0.00
2023-01-04T00:36:01.131Z,0.00
2023-01-04T00:37:01.117Z,0.00
2023-01-04T00:38:01.213Z,0.00
2023-01-04T00:39:01.062Z,0.00
2023-01-04T00:40:01.142Z,0.00
2023-01-04T00:41:01.058Z,0.00
2023-01-04T00:42:01.876Z,0.00
2023-01-04T00:43:01.068Z,0.00
2023-01-04T00:44:01.046Z,0.00
2023-01-04T00:45:01.025Z,0.00
2023-01-04T00:46:01.045Z,0.00
2023-01-04T00:47:00.986Z,0.00
2023-01-04T00:48:00.965Z,0.00
2023-01-04T00:49:01.226Z,0.00
2023-01-04T00:50:00.967Z,0.00
2023-01-04T00:51:00.956Z,0.00
2023-01-04T00:52:00.930Z,0.00
2023-01-04T00:53:00.931Z,0.00
2023-01-04T00:54:00.918Z,0.00
2023-01-04T00:55:00.953Z,0.00
2023-01-04T00:56:00.860Z,0.00
2023-01-04T00:57:00.899Z,0.00
2023-01-04T00:58:00.841Z,0.00
2023-01-04T00:59:00.842Z,0.00
2023-01-04T01:00:00.862Z,0.00
2023-01-04T01:01:00.800Z,0.00
2023-01-04T01:02:00.928Z,0.00
2023-01-04T01:03:01.125Z,0.00
2023-01-04T01:04:00.857Z,0.00
2023-01-04T01:05:00.773Z,0.00
2023-01-04T01:06:00.794Z,0.00
2023-01-04T01:07:00.755Z,0.00
2023-01-04T01:08:00.750Z,0.00
2023-01-04T01:09:00.728Z,0.00
2023-01-04T01:10:00.714Z,0.00
2023-01-04T01:11:00.722Z,0.00
2023-01-04T01:12:00.695Z,0.00
2023-01-04T01:13:00.713Z,0.00
2023-01-04T01:14:00.686Z,0.00
2023-01-04T01:15:01.072Z,0.00
2023-01-04T01:16:00.684Z,0.00
2023-01-04T01:17:00.702Z,0.00
2023-01-04T01:18:00.633Z,0.00
2023-01-04T01:19:00.604Z,0.00
2023-01-04T01:20:00.594Z,0.00
2023-01-04T01:21:00.576Z,0.00
2023-01-04T01:22:00.593Z,0.00
2023-01-04T01:23:00.587Z,0.00
2023-01-04T01:24:00.552Z,0.00
2023-01-04T01:25:00.555Z,0.00
2023-01-04T01:26:00.516Z,0.00
2023-01-04T01:27:00.525Z,0.00
2023-01-04T01:28:00.545Z,0.00
2023-01-04T01:29:00.502Z,0.00
2023-01-04T01:30:00.512Z,0.00
2023-01-04T01:31:06.639Z,0.00
2023-01-04T01:32:01.533Z,0.00
2023-01-04T01:33:00.454Z,0.00
2023-01-04T01:34:00.469Z,0.00
2023-01-04T01:35:00.480Z,0.00
2023-01-04T01:36:00.410Z,0.00
2023-01-04T01:37:00.427Z,0.00
2023-01-04T01:38:00.427Z,0.00
2023-01-04T01:39:00.397Z,0.00
2023-01-04T01:40:00.350Z,0.00
2023-01-04T01:41:00.347Z,0.00
2023-01-04T01:42:00.361Z,0.00
2023-01-04T01:43:00.371Z,0.00
2023-01-04T01:44:00.330Z,0.00
2023-01-04T01:45:00.350Z,0.00
2023-01-04T01:46:00.379Z,0.00
2023-01-04T01:47:00.437Z,0.00
2023-01-04T01:48:00.285Z,0.00
2023-01-04T01:49:00.309Z,0.00
2023-01-04T01:50:00.263Z,0.00
2023-01-04T01:51:00.243Z,0.00
2023-01-04T01:52:00.223Z,0.00
2023-01-04T01:53:00.203Z,0.00
2023-01-04T01:54:00.247Z,0.00
2023-01-04T01:55:00.196Z,0.00
2023-01-04T01:56:00.228Z,0.00
2023-01-04T01:57:00.216Z,0.00
2023-01-04T01:58:00.184Z,0.00
2023-01-04T01:59:00.173Z,0.00
2023-01-04T02:00:00.221Z,0.00
2023-01-04T02:01:00.132Z,0.00
2023-01-04T02:02:00.241Z,0.00
2023-01-04T02:03:00.196Z,0.00
2023-01-04T02:04:00.265Z,0.00
2023-01-04T02:05:00.115Z,0.00
2023-01-04T02:06:00.124Z,0.00
2023-01-04T02:07:00.058Z,0.00
2023-01-04T02:08:00.057Z,0.00
2023-01-04T02:09:00.024Z,0.00
2023-01-04T02:10:00.063Z,0.00
2023-01-04T02:11:00.035Z,0.00
2023-01-04T02:12:00.027Z,0.00
2023-01-04T02:12:59.974Z,0.00
2023-01-04T02:13:59.972Z,0.00
2023-01-04T02:14:59.989Z,0.00
2023-01-04T02:16:00.027Z,0.00
2023-01-04T02:16:59.976Z,0.00
2023-01-04T02:17:59.918Z,0.00
2023-01-04T02:18:59.959Z,0.00
2023-01-04T02:19:59.910Z,0.00
2023-01-04T02:20:59.926Z,0.00
2023-01-04T02:21:59.898Z,0.00
2023-01-04T02:22:59.863Z,0.00
2023-01-04T02:23:59.889Z,0.00
2023-01-04T02:24:59.871Z,0.00
2023-01-04T02:25:59.851Z,0.00
2023-01-04T02:26:59.846Z,0.00
2023-01-04T02:27:59.841Z,0.00
2023-01-04T02:28:59.809Z,0.00
2023-01-04T02:29:59.794Z,0.00
2023-01-04T02:30:59.859Z,0.00
2023-01-04T02:31:59.786Z,0.00
2023-01-04T02:32:59.830Z,0.00
2023-01-04T02:33:59.800Z,0.00
2023-01-04T02:34:59.753Z,0.00
2023-01-04T02:35:59.718Z,0.00
2023-01-04T02:36:59.731Z,0.00
2023-01-04T02:37:59.729Z,0.00
2023-01-04T02:38:59.696Z,0.00
2023-01-04T02:39:59.683Z,0.00
2023-01-04T02:40:59.683Z,0.00
2023-01-04T02:41:59.651Z,0.00
2023-01-04T02:42:59.674Z,0.00
2023-01-04T02:43:59.669Z,0.00
2023-01-04T02:44:59.644Z,0.00
2023-01-04T02:45:59.630Z,0.00
2023-01-04T02:46:59.683Z,0.00
2023-01-04T02:47:59.611Z,0.00
2023-01-04T02:48:59.588Z,0.00
2023-01-04T02:50:04.623Z,0.00
2023-01-04T02:51:00.553Z,0.00
2023-01-04T02:51:59.551Z,0.00
2023-01-04T02:52:59.553Z,0.00
2023-01-04T02:53:59.573Z,0.00
2023-01-04T02:54:59.534Z,0.00
2023-01-04T02:55:59.492Z,0.00
2023-01-04T02:57:04.874Z,0.00
2023-01-04T02:58:00.467Z,0.00
2023-01-04T02:58:59.503Z,0.00
2023-01-04T02:59:59.486Z,0.00
2023-01-04T03:00:59.438Z,0.00
2023-01-04T03:01:59.591Z,0.00
2023-01-04T03:02:59.514Z,0.00
2023-01-04T03:03:59.488Z,0.00
2023-01-04T03:04:59.401Z,0.00
2023-01-04T03:05:59.391Z,0.00
2023-01-04T03:06:59.373Z,0.00
2023-01-04T03:07:59.390Z,0.00
2023-01-04T03:08:59.360Z,0.00
2023-01-04T03:09:59.338Z,0.00
2023-01-04T03:10:59.355Z,0.00
2023-01-04T03:11:59.320Z,0.00
2023-01-04T03:12:59.312Z,0.00
2023-01-04T03:13:59.322Z,0.00
2023-01-04T03:14:59.279Z,0.00
2023-01-04T03:15:59.336Z,0.00
2023-01-04T03:16:59.259Z,0.00
2023-01-04T03:17:59.240Z,0.00
2023-01-04T03:18:59.259Z,0.00
2023-01-04T03:19:59.239Z,0.00
2023-01-04T03:20:59.198Z,0.00
2023-01-04T03:21:59.229Z,0.00
2023-01-04T03:22:59.216Z,0.00
2023-01-04T03:23:59.198Z,0.00
2023-01-04T03:24:59.168Z,0.00
2023-01-04T03:25:59.181Z,0.00
2023-01-04T03:26:59.149Z,0.00
2023-01-04T03:27:59.151Z,0.00
2023-01-04T03:28:59.121Z,0.00
2023-01-04T03:29:59.209Z,0.00
2023-01-04T03:30:59.150Z,0.00
2023-01-04T03:31:59.156Z,0.00
2023-01-04T03:32:59.113Z,0.00
2023-01-04T03:33:59.071Z,0.00
2023-01-04T03:34:59.069Z,0.00
2023-01-04T03:35:59.018Z,0.00
2023-01-04T03:36:59.017Z,0.00
2023-01-04T03:37:59.012Z,0.00
2023-01-04T03:38:59.019Z,0.00
2023-01-04T03:39:59.013Z,0.00
2023-01-04T03:40:58.970Z,0.00
2023-01-04T03:41:58.981Z,0.00
2023-01-04T03:42:58.951Z,0.00
2023-01-04T03:43:58.954Z,0.00
2023-01-04T03:45:02.941Z,0.00
2023-01-04T03:45:59.911Z,0.00
2023-01-04T03:46:59.059Z,0.00
2023-01-04T03:47:58.910Z,0.00
2023-01-04T03:48:58.912Z,0.00
2023-01-04T03:49:58.876Z,0.00
2023-01-04T03:50:58.883Z,0.00
2023-01-04T03:51:58.850Z,0.00
2023-01-04T03:52:58.845Z,0.00
2023-01-04T03:53:58.893Z,0.00
2023-01-04T03:54:58.804Z,0.00
2023-01-04T03:55:58.863Z,0.00
2023-01-04T03:56:58.800Z,0.00
2023-01-04T03:57:58.796Z,0.00
2023-01-04T03:58:58.763Z,0.00
2023-01-04T03:59:58.795Z,0.00
2023-01-04T04:00:58.770Z,0.00
2023-01-04T04:01:58.820Z,0.00
2023-01-04T04:02:58.713Z,0.00
2023-01-04T04:03:58.848Z,0.00
2023-01-04T04:04:58.699Z,0.00
2023-01-04T04:05:58.682Z,0.00
2023-01-04T04:06:58.672Z,0.00
2023-01-04T04:07:58.654Z,0.00
2023-01-04T04:08:58.670Z,0.00
2023-01-04T04:09:58.646Z,0.00
2023-01-04T04:10:58.660Z,0.00
2023-01-04T04:11:58.596Z,0.00
2023-01-04T04:12:58.610Z,0.00
2023-01-04T04:13:58.589Z,0.00
2023-01-04T04:14:58.613Z,0.00
2023-01-04T04:15:58.580Z,0.00
2023-01-04T04:16:58.643Z,0.00
2023-01-04T04:17:58.530Z,0.00
2023-01-04T04:19:00.839Z,0.00
2023-01-04T04:19:59.535Z,0.00
2023-01-04T04:20:58.511Z,0.00
2023-01-04T04:21:58.522Z,0.00
2023-01-04T04:22:58.482Z,0.00
2023-01-04T04:23:58.468Z,0.00
2023-01-04T04:24:58.493Z,0.00
2023-01-04T04:25:58.453Z,0.00
2023-01-04T04:26:58.463Z,0.00
2023-01-04T04:27:58.409Z,0.00
2023-01-04T04:28:58.453Z,0.00
2023-01-04T04:29:58.408Z,0.00
2023-01-04T04:30:58.383Z,0.00
2023-01-04T04:31:58.440Z,0.00
2023-01-04T04:32:58.393Z,0.00
2023-01-04T04:33:58.354Z,0.00
2023-01-04T04:34:58.388Z,0.00
2023-01-04T04:35:58.336Z,0.00
2023-01-04T04:36:58.358Z,0.00
2023-01-04T04:37:58.296Z,0.00
2023-01-04T04:38:58.317Z,0.00
2023-01-04T04:39:58.264Z,0.00
2023-01-04T04:40:58.306Z,0.00
2023-01-04T04:41:58.259Z,0.00
2023-01-04T04:42:58.244Z,0.00
2023-01-04T04:43:58.248Z,0.00
2023-01-04T04:44:58.239Z,0.00
2023-01-04T04:45:58.264Z,0.00
2023-01-04T04:46:58.207Z,0.00
2023-01-04T04:47:58.194Z,0.00
2023-01-04T04:48:58.155Z,0.00
2023-01-04T04:49:58.144Z,0.00
2023-01-04T04:50:58.151Z,0.00
2023-01-04T04:51:58.187Z,0.00
2023-01-04T04:52:58.153Z,0.00
2023-01-04T04:53:58.131Z,0.00
2023-01-04T04:54:58.136Z,0.00
2023-01-04T04:55:58.085Z,0.00
2023-01-04T04:56:58.088Z,0.00
2023-01-04T04:57:58.075Z,0.00
2023-01-04T04:58:58.071Z,0.00
2023-01-04T04:59:58.029Z,0.00
2023-01-04T05:00:58.073Z,0.00
2023-01-04T05:01:58.269Z,0.00
2023-01-04T05:02:58.108Z,0.00
2023-01-04T05:03:58.029Z,0.00
2023-01-04T05:04:57.978Z,0.00
2023-01-04T05:05:57.977Z,0.00
2023-01-04T05:06:57.983Z,0.00
2023-01-04T05:07:57.937Z,0.00
2023-01-04T05:08:57.947Z,0.00
2023-01-04T05:09:57.908Z,0.00
2023-01-04T05:10:57.932Z,0.00
2023-01-04T05:11:57.927Z,0.00
2023-01-04T05:12:58.227Z,0.00
2023-01-04T05:13:57.900Z,0.00
2023-01-04T05:14:57.872Z,0.00
2023-01-04T05:15:57.845Z,0.00
2023-01-04T05:16:57.951Z,0.00
2023-01-04T05:17:57.880Z,0.00
2023-01-04T05:18:57.821Z,0.00
2023-01-04T05:19:57.814Z,0.00
2023-01-04T05:20:57.781Z,0.00
2023-01-04T05:21:57.820Z,0.00
2023-01-04T05:22:57.816Z,0.00
2023-01-04T05:23:57.791Z,0.00
2023-01-04T05:24:57.734Z,0.00
2023-01-04T05:25:57.753Z,0.00
2023-01-04T05:26:57.748Z,0.00
2023-01-04T05:27:57.741Z,0.00
2023-01-04T05:28:57.708Z,0.00
2023-01-04T05:29:57.683Z,0.00
2023-01-04T05:30:57.676Z,0.00
2023-01-04T05:31:57.704Z,0.00
2023-01-04T05:32:57.663Z,0.00
2023-01-04T05:33:57.677Z,0.00
2023-01-04T05:34:57.666Z,0.00
2023-01-04T05:35:57.636Z,0.00
2023-01-04T05:36:57.608Z,0.00
2023-01-04T05:37:57.619Z,0.00
2023-01-04T05:38:57.586Z,0.00
2023-01-04T05:39:57.579Z,0.00
2023-01-04T05:40:57.562Z,0.00
2023-01-04T05:41:57.565Z,0.00
2023-01-04T05:42:57.564Z,0.00
2023-01-04T05:43:57.535Z,0.00
2023-01-04T05:44:57.527Z,0.00
2023-01-04T05:45:57.545Z,0.00
2023-01-04T05:46:57.476Z,0.00
2023-01-04T05:47:57.497Z,0.00
2023-01-04T05:48:57.500Z,0.00
2023-01-04T05:49:57.465Z,0.00
2023-01-04T05:50:57.443Z,0.00
2023-01-04T05:51:57.464Z,0.00
2023-01-04T05:52:57.425Z,0.00
2023-01-04T05:53:57.431Z,0.00
2023-01-04T05:54:57.401Z,0.00
2023-01-04T05:55:57.380Z,0.00
2023-01-04T05:56:57.358Z,0.00
2023-01-04T05:57:57.380Z,0.00
2023-01-04T05:58:57.359Z,0.00
2023-01-04T05:59:57.349Z,0.00
2023-01-04T06:00:57.313Z,0.00
2023-01-04T06:01:57.415Z,0.00
2023-01-04T06:02:57.347Z,0.00
2023-01-04T06:03:57.356Z,0.00
2023-01-04T06:04:59.381Z,0.00
2023-01-04T06:05:57.264Z,0.00
2023-01-04T06:06:57.241Z,0.00
2023-01-04T06:07:57.296Z,0.00
2023-01-04T06:08:57.243Z,0.00
2023-01-04T06:09:57.253Z,0.00
2023-01-04T06:10:57.251Z,0.00
2023-01-04T06:11:57.191Z,0.00
2023-01-04T06:12:57.186Z,0.00
2023-01-04T06:13:57.197Z,0.00
2023-01-04T06:14:57.174Z,0.00
2023-01-04T06:15:57.177Z,0.00
2023-01-04T06:16:57.224Z,0.00
2023-01-04T06:17:57.119Z,0.00
2023-01-04T06:18:57.183Z,0.00
2023-01-04T06:19:57.109Z,0.00
2023-01-04T06:20:57.103Z,0.00
2023-01-04T06:21:57.107Z,0.00
2023-01-04T06:22:57.071Z,0.00
2023-01-04T06:23:57.080Z,0.00
2023-01-04T06:24:57.079Z,0.00
2023-01-04T06:25:57.036Z,0.00
2023-01-04T06:26:57.017Z,0.00
2023-01-04T06:27:57.038Z,0.00
2023-01-04T06:28:57.021Z,0.00
2023-01-04T06:29:57.002Z,0.00
2023-01-04T06:30:57.082Z,0.00
2023-01-04T06:31:56.983Z,0.00
2023-01-04T06:32:56.966Z,0.00
2023-01-04T06:33:56.951Z,0.00
2023-01-04T06:34:56.956Z,0.00
2023-01-04T06:35:56.919Z,0.00
2023-01-04T06:36:56.936Z,0.00
2023-01-04T06:37:56.897Z,0.00
2023-01-04T06:38:56.870Z,0.00
2023-01-04T06:39:56.874Z,0.00
2023-01-04T06:40:56.852Z,0.00
2023-01-04T06:42:03.756Z,0.00
2023-01-04T06:42:57.869Z,0.00
2023-01-04T06:43:56.863Z,0.00
2023-01-04T06:44:56.803Z,4.00
2023-01-04T06:45:56.866Z,4.00
2023-01-04T06:46:56.786Z,4.00
2023-01-04T06:47:56.806Z,4.00
2023-01-04T06:48:56.799Z,0.00
2023-01-04T06:49:56.759Z,0.00
2023-01-04T06:50:56.972Z,4.00
2023-01-04T06:51:56.758Z,4.00
2023-01-04T06:52:56.776Z,4.00
2023-01-04T06:53:56.706Z,4.00
2023-01-04T06:54:56.725Z,4.00
2023-01-04T06:55:57.331Z,4.00
2023-01-04T06:56:56.693Z,4.00
2023-01-04T06:57:59.651Z,8.00
2023-01-04T06:58:56.672Z,4.00
2023-01-04T06:59:56.641Z,8.00
2023-01-04T07:00:56.704Z,8.00
2023-01-04T07:01:56.797Z,8.00
2023-01-04T07:03:14.255Z,12.00
2023-01-04T07:03:57.730Z,12.00
2023-01-04T07:04:56.614Z,8.00
2023-01-04T07:05:56.574Z,12.00
2023-01-04T07:06:56.565Z,12.00
2023-01-04T07:07:56.565Z,16.00
2023-01-04T07:08:56.534Z,16.00
2023-01-04T07:09:56.636Z,24.00
2023-01-04T07:10:56.502Z,28.00
2023-01-04T07:11:56.483Z,36.00
2023-01-04T07:12:56.502Z,40.00
2023-01-04T07:13:56.499Z,40.00
2023-01-04T07:14:56.456Z,44.00
2023-01-04T07:15:56.511Z,44.00
2023-01-04T07:16:56.451Z,52.00
2023-01-04T07:17:56.430Z,56.00
2023-01-04T07:18:56.435Z,60.00
2023-01-04T07:19:56.407Z,64.00
2023-01-04T07:20:56.407Z,72.00
2023-01-04T07:21:56.397Z,80.00
2023-01-04T07:22:56.371Z,80.00
2023-01-04T07:23:56.662Z,88.00
2023-01-04T07:24:56.360Z,92.00
2023-01-04T07:25:56.332Z,104.00
2023-01-04T07:26:56.341Z,116.00
2023-01-04T07:27:56.318Z,120.00
2023-01-04T07:28:56.329Z,128.00
2023-01-04T07:29:56.313Z,144.00
2023-01-04T07:30:56.321Z,160.00
2023-01-04T07:31:56.287Z,172.00
2023-01-04T07:32:56.268Z,184.00
2023-01-04T07:33:56.268Z,216.00
2023-01-04T07:34:56.238Z,244.00
2023-01-04T07:35:56.271Z,268.00
2023-01-04T07:36:56.237Z,288.00
2023-01-04T07:37:59.142Z,296.00
2023-01-04T07:38:56.443Z,304.00
2023-01-04T07:39:56.185Z,280.00
2023-01-04T07:40:57.242Z,264.00
2023-01-04T07:41:56.191Z,264.00
2023-01-04T07:42:56.144Z,268.00
2023-01-04T07:43:56.125Z,284.00
2023-01-04T07:44:56.127Z,292.00
2023-01-04T07:45:56.256Z,304.00
2023-01-04T07:46:56.276Z,320.00
2023-01-04T07:47:56.095Z,332.00
2023-01-04T07:48:56.111Z,332.00
2023-01-04T07:49:56.051Z,332.00
2023-01-04T07:50:56.071Z,356.00
2023-01-04T07:51:56.037Z,392.00
2023-01-04T07:52:56.064Z,392.00
2023-01-04T07:53:56.055Z,404.00
2023-01-04T07:54:55.995Z,432.00
2023-01-04T07:55:56.000Z,468.00
2023-01-04T07:56:55.989Z,464.00
2023-01-04T07:57:55.998Z,476.00
2023-01-04T07:58:55.946Z,524.00
2023-01-04T07:59:55.973Z,560.00
2023-01-04T08:00:55.953Z,572.00
2023-01-04T08:01:55.999Z,600.00
2023-01-04T08:02:56.281Z,708.00
2023-01-04T08:03:55.926Z,908.00
2023-01-04T08:04:55.956Z,1028.00
2023-01-04T08:05:55.866Z,1100.00
2023-01-04T08:06:55.869Z,1088.00
2023-01-04T08:07:55.846Z,1092.00
2023-01-04T08:08:55.829Z,1096.00
2023-01-04T08:09:55.841Z,1108.00
2023-01-04T08:10:55.823Z,1156.00
2023-01-04T08:11:55.816Z,1272.00
2023-01-04T08:12:56.877Z,1360.00
2023-01-04T08:13:55.775Z,1364.00
2023-01-04T08:14:55.789Z,1356.00
2023-01-04T08:15:55.838Z,1200.00
2023-01-04T08:16:55.789Z,1176.00
2023-01-04T08:17:55.719Z,1276.00
2023-01-04T08:18:55.737Z,1356.00
2023-01-04T08:19:55.733Z,1348.00
2023-01-04T08:20:58.609Z,1280.00
2023-01-04T08:21:55.672Z,1140.00
2023-01-04T08:22:55.852Z,1020.00
2023-01-04T08:23:55.667Z,988.00
2023-01-04T08:24:55.654Z,992.00
2023-01-04T08:25:55.651Z,936.00
2023-01-04T08:26:55.617Z,856.00
2023-01-04T08:27:55.618Z,796.00
2023-01-04T08:28:55.603Z,760.00
2023-01-04T08:29:55.608Z,736.00
2023-01-04T08:30:55.640Z,680.00
2023-01-04T08:31:55.575Z,692.00
2023-01-04T08:32:55.630Z,700.00
2023-01-04T08:33:55.556Z,716.00
2023-01-04T08:34:55.521Z,636.00
2023-01-04T08:35:55.864Z,572.00
2023-01-04T08:36:55.529Z,580.00
2023-01-04T08:38:02.976Z,572.00
2023-01-04T08:38:59.954Z,604.00
2023-01-04T08:39:55.479Z,608.00
2023-01-04T08:41:00.273Z,652.00
2023-01-04T08:41:58.795Z,712.00
2023-01-04T08:42:56.434Z,756.00
2023-01-04T08:43:55.451Z,868.00
2023-01-04T08:44:59.184Z,816.00
2023-01-04T08:45:55.684Z,812.00
2023-01-04T08:46:55.569Z,780.00
2023-01-04T08:47:55.389Z,696.00
2023-01-04T08:48:55.391Z,676.00
2023-01-04T08:49:55.430Z,720.00
2023-01-04T08:50:55.369Z,744.00
2023-01-04T08:51:55.340Z,788.00
2023-01-04T08:52:55.365Z,832.00
2023-01-04T08:53:55.318Z,868.00
2023-01-04T08:54:55.324Z,900.00
2023-01-04T08:55:55.322Z,944.00
2023-01-04T08:56:55.276Z,1032.00
2023-01-04T08:57:55.267Z,908.00
2023-01-04T08:58:55.273Z,716.00
2023-01-04T08:59:55.269Z,660.00
2023-01-04T09:00:55.584Z,696.00
2023-01-04T09:02:01.025Z,760.00
2023-01-04T09:02:56.515Z,828.00
2023-01-04T09:03:55.232Z,876.00
2023-01-04T09:04:55.373Z,992.00
2023-01-04T09:05:55.189Z,1296.00
2023-01-04T09:06:55.171Z,1328.00
2023-01-04T09:07:55.148Z,1296.00
2023-01-04T09:08:55.130Z,1388.00
2023-01-04T09:09:55.187Z,1488.00
2023-01-04T09:10:55.131Z,1588.00
2023-01-04T09:11:55.130Z,1332.00
2023-01-04T09:12:55.116Z,1108.00
2023-01-04T09:13:56.662Z,1180.00
2023-01-04T09:14:55.064Z,1144.00
2023-01-04T09:15:55.092Z,1268.00
2023-01-04T09:16:55.043Z,1456.00
2023-01-04T09:18:30.480Z,1384.00
2023-01-04T09:18:56.048Z,1468.00
2023-01-04T09:19:54.992Z,1512.00
2023-01-04T09:20:55.130Z,1448.00
2023-01-04T09:21:55.053Z,1452.00
2023-01-04T09:22:54.983Z,1592.00
2023-01-04T09:23:55.022Z,1672.00
2023-01-04T09:24:54.945Z,1864.00
2023-01-04T09:25:54.935Z,1968.00
2023-01-04T09:26:54.967Z,1944.00
2023-01-04T09:27:54.919Z,1936.00
2023-01-04T09:28:54.968Z,2008.00
2023-01-04T09:29:54.919Z,2080.00
2023-01-04T09:30:54.893Z,2184.00
2023-01-04T09:31:54.931Z,2272.00
2023-01-04T09:32:54.869Z,2344.00
2023-01-04T09:34:55.837Z,2360.00
2023-01-04T09:35:54.819Z,2452.00
2023-01-04T09:36:54.875Z,2596.00
2023-01-04T09:37:54.818Z,2772.00
2023-01-04T09:38:54.817Z,2892.00
2023-01-04T09:39:54.782Z,2864.00
2023-01-04T09:40:54.751Z,2788.00
2023-01-04T09:41:54.782Z,2868.00
2023-01-04T09:43:20.166Z,3012.00
2023-01-04T09:43:56.818Z,3096.00
2023-01-04T09:45:25.376Z,3288.00
2023-01-04T09:45:55.709Z,3348.00
2023-01-04T09:46:54.759Z,3260.00
2023-01-04T09:47:54.689Z,3156.00
2023-01-04T09:48:54.674Z,3180.00
2023-01-04T09:49:55.000Z,3072.00
2023-01-04T09:50:54.674Z,2924.00
2023-01-04T09:51:54.631Z,2740.00
2023-01-04T09:52:54.703Z,2644.00
2023-01-04T09:53:54.614Z,2456.00
2023-01-04T09:54:57.493Z,2400.00
2023-01-04T09:55:55.588Z,2380.00
2023-01-04T09:56:54.604Z,2484.00
2023-01-04T09:57:54.572Z,2308.00
2023-01-04T09:58:54.556Z,2156.00
2023-01-04T09:59:54.577Z,2188.00
2023-01-04T10:00:54.578Z,2180.00
2023-01-04T10:01:54.670Z,2412.00
2023-01-04T10:02:54.746Z,2540.00
2023-01-04T10:03:54.525Z,2796.00
2023-01-04T10:04:54.834Z,2968.00
2023-01-04T10:05:54.522Z,2984.00
2023-01-04T10:06:58.101Z,3040.00
2023-01-04T10:07:55.435Z,2864.00
2023-01-04T10:08:54.845Z,2708.00
2023-01-04T10:09:54.471Z,2600.00
2023-01-04T10:10:54.406Z,2444.00
2023-01-04T10:11:54.421Z,2384.00
2023-01-04T10:12:59.662Z,2368.00
2023-01-04T10:13:55.686Z,2388.00
2023-01-04T10:14:54.386Z,2412.00
2023-01-04T10:15:54.377Z,2520.00
2023-01-04T10:17:12.635Z,2632.00
2023-01-04T10:19:16.996Z,2720.00
2023-01-04T10:19:23.901Z,2620.00
2023-01-04T10:21:55.405Z,2560.00
2023-01-04T10:22:55.349Z,2488.00
2023-01-04T10:23:54.296Z,2596.00
2023-01-04T10:24:54.376Z,2580.00
2023-01-04T10:25:54.281Z,2600.00
2023-01-04T10:26:54.263Z,2588.00
2023-01-04T10:27:54.209Z,2588.00
2023-01-04T10:28:54.230Z,2700.00
2023-01-04T10:29:54.224Z,2812.00
2023-01-04T10:30:54.295Z,2980.00
2023-01-04T10:31:54.539Z,3268.00
2023-01-04T10:32:54.164Z,3480.00
2023-01-04T10:33:54.153Z,3488.00
2023-01-04T10:34:54.166Z,3604.00
2023-01-04T10:35:54.163Z,3680.00
2023-01-04T10:36:55.195Z,3612.00
2023-01-04T10:37:54.128Z,3716.00
2023-01-04T10:38:54.093Z,3704.00
2023-01-04T10:39:54.296Z,3764.00
2023-01-04T10:40:54.074Z,3900.00
2023-01-04T10:41:54.143Z,3788.00
2023-01-04T10:42:54.051Z,3572.00
2023-01-04T10:44:11.942Z,3568.00
2023-01-04T10:44:55.002Z,3448.00
2023-01-04T10:45:54.016Z,3492.00
2023-01-04T10:46:54.144Z,3492.00
2023-01-04T10:48:04.306Z,3444.00
2023-01-04T10:48:54.006Z,3304.00
2023-01-04T10:49:53.968Z,3168.00
2023-01-04T10:50:53.951Z,3012.00
2023-01-04T10:51:53.949Z,2948.00
2023-01-04T10:52:54.006Z,2892.00
2023-01-04T10:53:53.927Z,2884.00
2023-01-04T10:54:53.920Z,2996.00
2023-01-04T10:56:26.526Z,3092.00
2023-01-04T10:56:54.918Z,3256.00
2023-01-04T10:57:53.861Z,3332.00
2023-01-04T10:58:53.903Z,3280.00
2023-01-04T10:59:53.854Z,3020.00
2023-01-04T11:00:53.917Z,2652.00
2023-01-04T11:01:53.985Z,2708.00
2023-01-04T11:02:54.088Z,2548.00
2023-01-04T11:03:53.790Z,2324.00
2023-01-04T11:04:53.809Z,2356.00
2023-01-04T11:05:53.856Z,2236.00
2023-01-04T11:06:53.768Z,2052.00
2023-01-04T11:07:53.764Z,1888.00
2023-01-04T11:08:53.768Z,1860.00
2023-01-04T11:09:53.734Z,1556.00
2023-01-04T11:10:53.709Z,1680.00
2023-01-04T11:11:53.706Z,1568.00
2023-01-04T11:12:54.485Z,1236.00
2023-01-04T11:13:53.712Z,1224.00
2023-01-04T11:14:53.715Z,1204.00
2023-01-04T11:15:54.427Z,1068.00
2023-01-04T11:16:53.913Z,1192.00
2023-01-04T11:17:53.645Z,1424.00
2023-01-04T11:18:53.643Z,1688.00
2023-01-04T11:19:53.730Z,1784.00
2023-01-04T11:20:53.919Z,1860.00
2023-01-04T11:21:53.662Z,2228.00
2023-01-04T11:22:53.919Z,2248.00
2023-01-04T11:23:59.604Z,2280.00
2023-01-04T11:25:33.015Z,2308.00
2023-01-04T11:25:56.298Z,2188.00
2023-01-04T11:26:53.584Z,2384.00
2023-01-04T11:27:53.508Z,2240.00
2023-01-04T11:28:53.554Z,2192.00
2023-01-04T11:29:53.812Z,2452.00
2023-01-04T11:30:53.512Z,2172.00
2023-01-04T11:31:53.614Z,2592.00
2023-01-04T11:32:53.521Z,2288.00
2023-01-04T11:33:53.441Z,2380.00
2023-01-04T11:34:53.528Z,2880.00
2023-01-04T11:35:53.426Z,3556.00
2023-01-04T11:36:53.465Z,3876.00
2023-01-04T11:37:53.427Z,3436.00
2023-01-04T11:38:54.006Z,2872.00
2023-01-04T11:39:53.366Z,3436.00
2023-01-04T11:40:54.554Z,4276.00
2023-01-04T11:41:57.420Z,4572.00
2023-01-04T11:42:54.671Z,4392.00
2023-01-04T11:43:53.357Z,4620.00
2023-01-04T11:44:53.354Z,4484.00
2023-01-04T11:45:53.462Z,4368.00
2023-01-04T11:46:53.510Z,3720.00
2023-01-04T11:47:53.323Z,3700.00
2023-01-04T11:48:53.349Z,4452.00
2023-01-04T11:49:53.313Z,4500.00
2023-01-04T11:50:53.746Z,4664.00
2023-01-04T11:51:53.283Z,4072.00
2023-01-04T11:52:53.218Z,3700.00
2023-01-04T11:53:53.221Z,2788.00
2023-01-04T11:54:53.271Z,2960.00
2023-01-04T11:55:53.290Z,3520.00
2023-01-04T11:56:53.210Z,4124.00
2023-01-04T11:57:53.196Z,4256.00
2023-01-04T11:58:53.204Z,4060.00
2023-01-04T11:59:53.183Z,4420.00
2023-01-04T12:00:53.197Z,3884.00
2023-01-04T12:01:53.217Z,3560.00
2023-01-04T12:03:01.914Z,4136.00
2023-01-04T12:03:54.127Z,4812.00
2023-01-04T12:04:53.138Z,4188.00
2023-01-04T12:05:53.092Z,3580.00
2023-01-04T12:06:53.100Z,3504.00
2023-01-04T12:07:53.087Z,3788.00
2023-01-04T12:08:53.045Z,3588.00
2023-01-04T12:09:53.090Z,3904.00
2023-01-04T12:10:53.076Z,3744.00
2023-01-04T12:11:53.021Z,3976.00
2023-01-04T12:12:53.131Z,3964.00
2023-01-04T12:13:53.007Z,4360.00
2023-01-04T12:14:53.032Z,4556.00
2023-01-04T12:15:53.043Z,4908.00
2023-01-04T12:16:53.070Z,5184.00
2023-01-04T12:17:52.999Z,5492.00
2023-01-04T12:18:52.973Z,6240.00
2023-01-04T12:19:52.980Z,5776.00
2023-01-04T12:20:52.974Z,5692.00
2023-01-04T12:21:52.950Z,6112.00
2023-01-04T12:22:52.919Z,6380.00
2023-01-04T12:23:52.935Z,6276.00
2023-01-04T12:24:58.452Z,6444.00
2023-01-04T12:25:53.921Z,6016.00
2023-01-04T12:26:54.066Z,5808.00
2023-01-04T12:27:53.150Z,6028.00
2023-01-04T12:28:52.817Z,7004.00
2023-01-04T12:29:52.888Z,6444.00
2023-01-04T12:30:52.778Z,6024.00
2023-01-04T12:31:52.843Z,5756.00
2023-01-04T12:32:52.787Z,5828.00
2023-01-04T12:33:52.839Z,6180.00
2023-01-04T12:34:53.791Z,6512.00
2023-01-04T12:35:53.755Z,6160.00
2023-01-04T12:36:52.738Z,5368.00
2023-01-04T12:37:52.754Z,5516.00
2023-01-04T12:38:52.721Z,4844.00
2023-01-04T12:39:52.717Z,5008.00
2023-01-04T12:40:52.670Z,5216.00
2023-01-04T12:41:52.695Z,4936.00
2023-01-04T12:42:52.716Z,4904.00
2023-01-04T12:43:52.725Z,4644.00
2023-01-04T12:44:52.715Z,4432.00
2023-01-04T12:45:52.724Z,4548.00
2023-01-04T12:46:52.729Z,4672.00
2023-01-04T12:47:52.659Z,4712.00
2023-01-04T12:48:52.687Z,4524.00
2023-01-04T12:49:52.631Z,4468.00
2023-01-04T12:51:07.364Z,4788.00